Chiriaco Summit, California
Current Conditions -  °F | °C
As of 10:52 PM on Wednesday 26 Nov 2014 (Local Time) from KTRM Reporting Station
Clear Clear  
Wind Chill: 43°   Ceiling: Unl
Heat Index: 43°   Visibility: 10mi
Dew Point: 31°   Wind: 0mph
Humidity: 62%   Direction: NA
Pressure: 30.16"   Gusts: NA
Location:  33.7269°N, 116.236°W
Report Text: KTRM 270652Z AUTO 00000KT 10SM CLR 06/M01 A3016 RMK AO2 SLP212 T00611006 TSNO
Loading
Personal Weather Stations






























Interactive Weather Map New forecast layout! Learn more

10-Day Weather Forecast

Advertisements
Track Severe Weather on mobile